createdAt,value
2019-05-26T00:01:47.874Z,2.40
2019-05-26T00:04:18.503Z,2.65
2019-05-26T00:06:49.520Z,2.45
2019-05-26T00:09:20.618Z,2.83
2019-05-26T00:11:51.345Z,3.00
2019-05-26T00:14:22.703Z,3.12
2019-05-26T00:16:54.403Z,3.58
2019-05-26T00:19:25.444Z,3.12
2019-05-26T00:21:55.956Z,3.22
2019-05-26T00:24:27.186Z,3.40
2019-05-26T00:26:57.888Z,3.40
2019-05-26T00:29:29.599Z,3.58
2019-05-26T00:32:00.740Z,3.25
2019-05-26T00:34:31.734Z,3.30
2019-05-26T00:37:02.353Z,3.02
2019-05-26T00:39:32.918Z,3.45
2019-05-26T00:42:03.938Z,3.05
2019-05-26T00:44:36.096Z,2.80
2019-05-26T00:47:07.354Z,3.10
2019-05-26T00:49:38.349Z,2.90
2019-05-26T00:52:09.260Z,3.47
2019-05-26T00:54:40.222Z,3.52
2019-05-26T00:57:11.171Z,3.45
2019-05-26T00:59:42.240Z,3.10
2019-05-26T01:02:13.489Z,3.35
2019-05-26T01:04:44.335Z,4.03
2019-05-26T01:07:15.918Z,4.05
2019-05-26T01:09:46.915Z,4.28
2019-05-26T01:12:17.564Z,3.60
2019-05-26T01:14:49.084Z,4.22
2019-05-26T01:17:20.102Z,3.92
2019-05-26T01:19:51.487Z,3.70
2019-05-26T01:22:23.653Z,4.67
2019-05-26T01:24:54.686Z,4.30
2019-05-26T01:27:25.702Z,4.08
2019-05-26T01:29:57.197Z,3.70
2019-05-26T01:32:28.152Z,3.90
2019-05-26T01:34:59.094Z,3.80
2019-05-26T01:37:29.895Z,4.12
2019-05-26T01:40:01.154Z,3.98
2019-05-26T01:42:32.181Z,3.55
2019-05-26T01:45:02.952Z,3.85
2019-05-26T01:47:33.956Z,4.20
2019-05-26T01:50:05.243Z,3.85
2019-05-26T01:52:36.393Z,4.47
2019-05-26T01:55:07.422Z,4.58
2019-05-26T01:57:38.438Z,4.40
2019-05-26T02:00:10.072Z,4.40
2019-05-26T02:02:41.017Z,4.72
2019-05-26T02:05:12.196Z,5.75
2019-05-26T02:07:43.459Z,5.37
2019-05-26T02:10:14.685Z,5.80
2019-05-26T02:12:45.748Z,6.30
2019-05-26T02:15:18.358Z,6.53
2019-05-26T02:17:49.449Z,6.65
2019-05-26T02:20:20.724Z,6.70
2019-05-26T02:22:51.613Z,6.30
2019-05-26T02:25:22.781Z,6.53
2019-05-26T02:27:53.703Z,6.55
2019-05-26T02:30:24.962Z,6.12
2019-05-26T02:32:56.583Z,6.15
2019-05-26T02:35:27.669Z,6.37
2019-05-26T02:37:59.553Z,5.80
2019-05-26T02:40:30.476Z,6.70
2019-05-26T02:43:01.418Z,6.15
2019-05-26T02:45:32.428Z,7.47
2019-05-26T02:48:03.300Z,7.35
2019-05-26T02:50:34.235Z,7.03
2019-05-26T02:53:05.201Z,6.58
2019-05-26T02:55:35.809Z,6.65
2019-05-26T02:58:06.342Z,5.92
2019-05-26T03:00:47.157Z,6.42
2019-05-26T03:03:18.350Z,5.62
2019-05-26T03:05:49.573Z,5.45
2019-05-26T03:08:21.253Z,5.97
2019-05-26T03:10:54.517Z,5.17
2019-05-26T03:13:26.517Z,5.42
2019-05-26T03:15:59.136Z,5.08
2019-05-26T03:18:33.382Z,5.35
2019-05-26T03:21:05.364Z,5.00
2019-05-26T03:23:36.329Z,4.75
2019-05-26T03:26:07.412Z,5.47
2019-05-26T03:28:38.457Z,5.47
2019-05-26T03:31:09.058Z,5.67
2019-05-26T03:33:39.567Z,5.35
2019-05-26T03:36:10.938Z,5.12
2019-05-26T03:38:41.550Z,4.90
2019-05-26T03:41:12.596Z,5.05
2019-05-26T03:43:43.744Z,4.65
2019-05-26T03:46:19.200Z,5.45
2019-05-26T03:48:50.813Z,5.30
2019-05-26T03:51:22.849Z,5.03
2019-05-26T03:53:53.754Z,5.20
2019-05-26T03:56:24.816Z,4.97
2019-05-26T03:58:55.432Z,4.92
2019-05-26T04:01:26.057Z,4.87
2019-05-26T04:03:57.156Z,5.47
2019-05-26T04:06:28.161Z,5.45
2019-05-26T04:08:58.757Z,5.80
2019-05-26T04:11:29.713Z,5.35
2019-05-26T04:14:00.683Z,6.00
2019-05-26T04:16:31.919Z,5.90
2019-05-26T04:19:02.840Z,6.50
2019-05-26T04:21:33.718Z,6.75
2019-05-26T04:24:05.267Z,6.28
2019-05-26T04:26:35.737Z,5.78
2019-05-26T04:29:06.442Z,5.83
2019-05-26T04:31:37.571Z,5.28
2019-05-26T04:34:08.517Z,5.65
2019-05-26T04:36:39.445Z,5.28
2019-05-26T04:39:10.566Z,5.10
2019-05-26T04:41:41.136Z,5.45
2019-05-26T04:44:11.660Z,5.20
2019-05-26T04:46:42.673Z,5.10
2019-05-26T04:49:13.587Z,5.08
2019-05-26T04:51:44.532Z,5.12
2019-05-26T04:54:15.716Z,5.15
2019-05-26T04:56:46.414Z,5.10
2019-05-26T04:59:17.065Z,4.97
2019-05-26T05:01:47.617Z,4.47
2019-05-26T05:04:18.165Z,5.28
2019-05-26T05:06:48.756Z,5.53
2019-05-26T05:09:19.698Z,5.10
2019-05-26T05:11:50.317Z,4.70
2019-05-26T05:14:20.962Z,5.58
2019-05-26T05:16:52.641Z,5.08
2019-05-26T05:19:23.215Z,5.08
2019-05-26T05:21:53.906Z,5.37
2019-05-26T05:24:24.425Z,5.50
2019-05-26T05:26:56.041Z,5.12
2019-05-26T05:29:26.728Z,5.10
2019-05-26T05:31:57.693Z,4.92
2019-05-26T05:34:28.881Z,4.85
2019-05-26T05:36:59.445Z,5.40
2019-05-26T05:39:30.506Z,5.60
2019-05-26T05:42:01.205Z,5.22
2019-05-26T05:44:31.772Z,5.53
2019-05-26T05:47:02.363Z,5.17
2019-05-26T05:49:32.886Z,5.45
2019-05-26T05:52:03.461Z,5.20
2019-05-26T05:54:33.984Z,5.72
2019-05-26T05:57:04.702Z,5.67
2019-05-26T05:59:35.303Z,5.75
2019-05-26T06:02:05.982Z,5.87
2019-05-26T06:04:36.600Z,5.40
2019-05-26T06:07:07.331Z,6.30
2019-05-26T06:09:37.957Z,5.60
2019-05-26T06:12:08.551Z,5.30
2019-05-26T06:14:39.200Z,5.22
2019-05-26T06:17:10.619Z,6.00
2019-05-26T06:19:41.409Z,5.92
2019-05-26T06:22:11.267Z,5.53
2019-05-26T06:24:41.863Z,6.05
2019-05-26T06:27:12.615Z,5.40
2019-05-26T06:29:57.853Z,5.53
2019-05-26T06:32:15.196Z,5.30
2019-05-26T06:34:45.954Z,5.30
2019-05-26T06:37:16.571Z,5.12
2019-05-26T06:39:47.508Z,5.50
2019-05-26T06:42:18.148Z,5.60
2019-05-26T06:44:53.682Z,5.15
2019-05-26T06:47:21.388Z,5.35
2019-05-26T06:49:51.920Z,5.03
2019-05-26T06:52:22.456Z,4.00
2019-05-26T06:54:52.981Z,5.08
2019-05-26T06:57:23.549Z,4.42
2019-05-26T06:59:54.302Z,4.80
2019-05-26T07:02:25.002Z,4.05
2019-05-26T07:04:55.602Z,4.28
2019-05-26T07:07:26.205Z,3.90
2019-05-26T07:09:56.818Z,4.10
2019-05-26T07:12:27.434Z,4.15
2019-05-26T07:14:57.982Z,3.98
2019-05-26T07:17:30.230Z,3.95
2019-05-26T07:20:00.089Z,3.95
2019-05-26T07:22:30.739Z,4.78
2019-05-26T07:25:01.446Z,3.50
2019-05-26T07:27:32.116Z,3.52
2019-05-26T07:30:02.778Z,3.42
2019-05-26T07:32:34.593Z,3.33
2019-05-26T07:35:05.196Z,3.67
2019-05-26T07:37:35.798Z,3.40
2019-05-26T07:40:05.782Z,3.60
2019-05-26T07:42:35.597Z,3.77
2019-05-26T07:45:08.500Z,3.52
2019-05-26T07:47:38.489Z,3.52
2019-05-26T07:50:08.508Z,4.08
2019-05-26T07:52:38.380Z,3.50
2019-05-26T07:55:09.848Z,3.58
2019-05-26T07:57:40.437Z,3.62
2019-05-26T08:00:11.129Z,3.40
2019-05-26T08:02:43.654Z,3.27
2019-05-26T08:05:14.292Z,3.50
2019-05-26T08:07:44.295Z,3.17
2019-05-26T08:10:14.280Z,3.15
2019-05-26T08:12:44.147Z,3.12
2019-05-26T08:15:15.519Z,3.08
2019-05-26T08:17:45.435Z,3.55
2019-05-26T08:20:15.901Z,3.08
2019-05-26T08:22:46.455Z,2.50
2019-05-26T08:25:17.408Z,3.20
2019-05-26T08:27:47.420Z,2.90
2019-05-26T08:30:17.234Z,2.60
2019-05-26T08:32:47.828Z,2.80
2019-05-26T08:35:18.437Z,2.45
2019-05-26T08:37:49.389Z,2.80
2019-05-26T08:40:19.890Z,2.42
2019-05-26T08:42:50.201Z,2.75
2019-05-26T08:45:21.970Z,2.90
2019-05-26T08:47:52.789Z,2.42
2019-05-26T08:50:23.516Z,2.70
2019-05-26T08:52:54.197Z,2.60
2019-05-26T08:55:25.508Z,2.75
2019-05-26T08:57:56.020Z,2.30
2019-05-26T09:00:26.594Z,2.70
2019-05-26T09:02:57.167Z,3.20
2019-05-26T09:05:27.827Z,2.98
2019-05-26T09:07:58.441Z,2.62
2019-05-26T09:10:29.175Z,2.62
2019-05-26T09:13:01.539Z,2.62
2019-05-26T09:15:32.212Z,2.75
2019-05-26T09:18:02.804Z,3.27
2019-05-26T09:20:33.495Z,3.15
2019-05-26T09:23:04.140Z,2.75
2019-05-26T09:25:35.885Z,2.80
2019-05-26T09:28:06.604Z,3.17
2019-05-26T09:30:37.318Z,3.00
2019-05-26T09:33:07.878Z,2.90
2019-05-26T09:35:38.525Z,2.87
2019-05-26T09:38:09.131Z,2.62
2019-05-26T09:40:39.830Z,3.10
2019-05-26T09:43:16.266Z,3.15
2019-05-26T09:45:43.956Z,3.10
2019-05-26T09:48:14.583Z,3.30
2019-05-26T09:50:45.176Z,3.47
2019-05-26T09:53:16.229Z,3.33
2019-05-26T09:55:46.799Z,2.65
2019-05-26T09:58:19.730Z,3.08
2019-05-26T10:00:50.381Z,2.62
2019-05-26T10:03:22.091Z,3.15
2019-05-26T10:05:52.774Z,3.10
2019-05-26T10:08:23.374Z,3.05
2019-05-26T10:10:54.030Z,3.12
2019-05-26T10:13:31.898Z,2.95
2019-05-26T10:15:56.857Z,2.87
2019-05-26T10:18:27.461Z,2.72
2019-05-26T10:20:58.534Z,2.60
2019-05-26T10:23:29.154Z,3.08
2019-05-26T10:25:59.872Z,3.10
2019-05-26T10:28:30.456Z,2.60
2019-05-26T10:31:01.111Z,3.30
2019-05-26T10:33:31.130Z,2.52
2019-05-26T10:36:01.646Z,2.80
2019-05-26T10:38:32.343Z,3.10
2019-05-26T10:41:03.297Z,3.52
2019-05-26T10:43:46.371Z,3.87
2019-05-26T10:46:06.280Z,2.60
2019-05-26T10:48:36.916Z,2.80
2019-05-26T10:51:07.510Z,2.60
2019-05-26T10:53:38.046Z,2.65
2019-05-26T10:56:09.194Z,2.40
2019-05-26T10:58:39.838Z,2.05
2019-05-26T11:01:10.471Z,1.90
2019-05-26T11:03:41.102Z,2.17
2019-05-26T11:06:12.424Z,2.35
2019-05-26T11:08:43.127Z,1.80
2019-05-26T11:11:13.832Z,1.98
2019-05-26T11:13:44.458Z,1.92
2019-05-26T11:16:15.270Z,1.90
2019-05-26T11:18:45.860Z,1.90
2019-05-26T11:21:16.537Z,2.12
2019-05-26T11:23:47.188Z,2.12
2019-05-26T11:26:18.955Z,1.92
2019-05-26T11:28:49.766Z,1.92
2019-05-26T11:31:20.411Z,1.80
2019-05-26T11:33:52.239Z,1.95
2019-05-26T11:36:22.868Z,2.20
2019-05-26T11:38:54.421Z,2.30
2019-05-26T11:41:25.101Z,2.22
2019-05-26T11:43:55.666Z,2.10
2019-05-26T11:46:26.262Z,1.70
2019-05-26T11:48:56.914Z,2.02
2019-05-26T11:51:27.957Z,2.40
2019-05-26T11:53:58.605Z,1.87
2019-05-26T11:56:31.438Z,1.75
2019-05-26T11:59:02.079Z,1.72
2019-05-26T12:01:33.120Z,1.60
2019-05-26T12:04:03.696Z,1.20
2019-05-26T12:06:34.393Z,1.32
2019-05-26T12:09:07.071Z,1.50
2019-05-26T12:11:37.687Z,1.40
2019-05-26T12:14:08.275Z,1.30
2019-05-26T12:16:38.929Z,1.42
2019-05-26T12:19:09.501Z,1.72
2019-05-26T12:21:40.924Z,1.52
2019-05-26T12:24:11.582Z,1.40
2019-05-26T12:26:42.214Z,1.42
2019-05-26T12:29:12.789Z,2.00
2019-05-26T12:31:43.477Z,1.75
2019-05-26T12:34:14.229Z,1.50
2019-05-26T12:36:44.785Z,1.42
2019-05-26T12:39:15.486Z,1.57
2019-05-26T12:41:46.465Z,1.82
2019-05-26T12:44:17.084Z,2.37
2019-05-26T12:46:52.003Z,1.87
2019-05-26T12:49:27.373Z,1.50
2019-05-26T12:51:55.848Z,2.25
2019-05-26T12:54:26.498Z,1.62
2019-05-26T12:56:57.038Z,2.00
2019-05-26T12:59:30.181Z,1.80
2019-05-26T13:02:00.867Z,2.00
2019-05-26T13:04:30.886Z,2.00
2019-05-26T13:07:01.483Z,1.90
2019-05-26T13:09:32.257Z,1.80
2019-05-26T13:12:02.284Z,1.65
2019-05-26T13:14:33.880Z,1.70
2019-05-26T13:17:05.446Z,1.60
2019-05-26T13:19:36.105Z,1.90
2019-05-26T13:22:07.133Z,1.62
2019-05-26T13:24:37.053Z,1.90
2019-05-26T13:27:07.596Z,2.00
2019-05-26T13:29:38.271Z,1.47
2019-05-26T13:32:08.912Z,1.65
2019-05-26T13:34:39.573Z,2.33
2019-05-26T13:37:10.173Z,2.20
2019-05-26T13:39:40.767Z,2.00
2019-05-26T13:42:11.781Z,1.70
2019-05-26T13:44:42.353Z,2.00
2019-05-26T13:47:25.342Z,2.10
2019-05-26T13:49:45.439Z,2.10
2019-05-26T13:52:15.334Z,2.40
2019-05-26T13:54:45.209Z,2.10
2019-05-26T13:57:15.689Z,2.27
2019-05-26T13:59:46.420Z,2.10
2019-05-26T14:02:18.434Z,1.80
2019-05-26T14:04:49.071Z,1.67
2019-05-26T14:07:20.404Z,1.60
2019-05-26T14:09:53.419Z,1.87
2019-05-26T14:12:24.126Z,1.85
2019-05-26T14:14:55.535Z,1.67
2019-05-26T14:17:27.237Z,2.10
2019-05-26T14:19:59.706Z,2.58
2019-05-26T14:22:30.437Z,3.02
2019-05-26T14:25:00.998Z,3.30
2019-05-26T14:27:31.576Z,3.17
2019-05-26T14:30:02.222Z,3.42
2019-05-26T14:32:32.914Z,3.80
2019-05-26T14:35:18.260Z,2.85
2019-05-26T14:37:48.894Z,2.77
2019-05-26T14:40:19.915Z,2.58
2019-05-26T14:42:51.686Z,2.83
2019-05-26T14:45:22.937Z,2.77
2019-05-26T14:47:53.751Z,2.62
2019-05-26T14:50:27.409Z,2.60
2019-05-26T14:52:58.481Z,2.92
2019-05-26T14:55:29.472Z,2.80
2019-05-26T14:58:14.388Z,2.87
2019-05-26T15:00:33.034Z,2.40
2019-05-26T15:03:03.218Z,2.40
2019-05-26T15:05:34.164Z,2.35
2019-05-26T15:08:05.740Z,2.00
2019-05-26T15:10:37.241Z,2.00
2019-05-26T15:13:08.631Z,1.90
2019-05-26T15:15:40.406Z,2.10
2019-05-26T15:18:11.462Z,2.00
2019-05-26T15:20:42.817Z,1.65
2019-05-26T15:23:13.869Z,1.77
2019-05-26T15:25:45.405Z,1.80
2019-05-26T15:28:16.421Z,2.08
2019-05-26T15:30:46.983Z,2.30
2019-05-26T15:33:17.603Z,2.00
2019-05-26T15:35:48.571Z,1.90
2019-05-26T15:38:19.178Z,1.80
2019-05-26T15:40:50.597Z,1.50
2019-05-26T15:43:21.581Z,1.60
2019-05-26T15:45:52.847Z,1.37
2019-05-26T15:48:23.899Z,1.70
2019-05-26T15:50:54.997Z,1.62
2019-05-26T15:53:26.113Z,2.10
2019-05-26T15:55:56.726Z,2.42
2019-05-26T15:58:27.449Z,1.67
2019-05-26T16:00:58.158Z,1.70
2019-05-26T16:03:29.432Z,1.72
2019-05-26T16:06:00.491Z,1.45
2019-05-26T16:08:31.628Z,1.72
2019-05-26T16:11:02.731Z,1.50
2019-05-26T16:13:33.915Z,1.37
2019-05-26T16:16:05.322Z,1.50
2019-05-26T16:18:36.529Z,1.47
2019-05-26T16:21:19.134Z,2.00
2019-05-26T16:23:41.373Z,1.92
2019-05-26T16:26:13.700Z,1.90
2019-05-26T16:28:44.786Z,1.80
2019-05-26T16:31:15.964Z,1.80
2019-05-26T16:33:48.107Z,1.60
2019-05-26T16:36:21.411Z,1.92
2019-05-26T16:38:52.784Z,2.33
2019-05-26T16:41:23.959Z,2.22
2019-05-26T16:43:55.338Z,2.40
2019-05-26T16:46:26.260Z,2.12
2019-05-26T16:48:56.859Z,1.92
2019-05-26T16:51:29.525Z,1.98
2019-05-26T16:54:00.417Z,2.17
2019-05-26T16:56:31.434Z,2.00
2019-05-26T16:59:02.797Z,1.95
2019-05-26T17:01:34.677Z,1.82
2019-05-26T17:04:05.862Z,2.00
2019-05-26T17:06:36.941Z,1.80
2019-05-26T17:09:08.940Z,1.82
2019-05-26T17:11:39.581Z,2.02
2019-05-26T17:14:10.679Z,1.95
2019-05-26T17:16:41.397Z,2.30
2019-05-26T17:19:12.720Z,1.42
2019-05-26T17:21:43.696Z,1.95
2019-05-26T17:24:14.364Z,2.10
2019-05-26T17:26:45.276Z,1.57
2019-05-26T17:29:16.714Z,2.05
2019-05-26T17:31:47.354Z,1.90
2019-05-26T17:34:18.051Z,1.70
2019-05-26T17:36:49.664Z,1.60
2019-05-26T17:39:20.289Z,1.70
2019-05-26T17:41:50.937Z,1.82
2019-05-26T17:44:21.670Z,2.27
2019-05-26T17:46:52.194Z,1.87
2019-05-26T17:49:26.131Z,1.67
2019-05-26T17:51:56.843Z,1.50
2019-05-26T17:54:27.572Z,1.67
2019-05-26T17:56:58.212Z,1.82
2019-05-26T17:59:29.160Z,1.90
2019-05-26T18:01:59.718Z,2.10
2019-05-26T18:04:30.284Z,1.75
2019-05-26T18:07:00.814Z,2.10
2019-05-26T18:09:44.240Z,2.17
2019-05-26T18:12:09.633Z,2.50
2019-05-26T18:14:40.822Z,2.60
2019-05-26T18:17:11.440Z,2.37
2019-05-26T18:19:43.015Z,2.77
2019-05-26T18:22:13.689Z,2.60
2019-05-26T18:24:54.840Z,2.47
2019-05-26T18:27:18.869Z,2.60
2019-05-26T18:29:49.504Z,2.85
2019-05-26T18:32:20.613Z,2.80
2019-05-26T18:34:55.189Z,2.87
2019-05-26T18:37:27.388Z,2.65
2019-05-26T18:39:58.101Z,2.72
2019-05-26T18:42:28.719Z,3.90
2019-05-26T18:44:59.307Z,2.92
2019-05-26T18:47:29.866Z,3.60
2019-05-26T18:50:00.542Z,4.22
2019-05-26T18:52:31.300Z,3.30
2019-05-26T18:55:02.672Z,3.20
2019-05-26T18:57:34.368Z,3.35
2019-05-26T19:00:06.351Z,3.52
2019-05-26T19:02:39.472Z,3.83
2019-05-26T19:05:10.355Z,4.35
2019-05-26T19:07:41.901Z,4.50
2019-05-26T19:10:14.233Z,4.25
2019-05-26T19:12:45.594Z,3.87
2019-05-26T19:15:17.073Z,3.60
2019-05-26T19:17:48.070Z,3.40
2019-05-26T19:20:20.647Z,3.95
2019-05-26T19:22:53.394Z,3.30
2019-05-26T19:25:24.052Z,3.37
2019-05-26T19:27:54.792Z,4.60
2019-05-26T19:30:28.273Z,4.20
2019-05-26T19:32:58.935Z,3.80
2019-05-26T19:35:29.671Z,3.15
2019-05-26T19:38:01.574Z,3.22
2019-05-26T19:40:32.619Z,3.20
2019-05-26T19:43:09.476Z,3.40
2019-05-26T19:45:42.797Z,3.08
2019-05-26T19:48:13.834Z,3.20
2019-05-26T19:50:44.580Z,3.20
2019-05-26T19:53:15.246Z,3.37
2019-05-26T19:55:45.902Z,3.58
2019-05-26T19:58:17.453Z,3.05
2019-05-26T20:00:48.051Z,3.02
2019-05-26T20:03:18.060Z,3.00
2019-05-26T20:05:47.984Z,2.75
2019-05-26T20:08:18.048Z,2.67
2019-05-26T20:10:47.867Z,2.60
2019-05-26T20:13:17.721Z,2.85
2019-05-26T20:15:47.609Z,2.60
2019-05-26T20:18:17.524Z,2.85
2019-05-26T20:20:47.494Z,2.83
2019-05-26T20:23:17.819Z,3.15
2019-05-26T20:25:47.649Z,3.45
2019-05-26T20:28:17.420Z,3.20
2019-05-26T20:30:47.319Z,2.85
2019-05-26T20:33:17.584Z,3.00
2019-05-26T20:35:47.427Z,3.05
2019-05-26T20:38:17.643Z,3.00
2019-05-26T20:40:47.558Z,3.02
2019-05-26T20:43:18.664Z,3.47
2019-05-26T20:45:48.568Z,3.30
2019-05-26T20:48:20.270Z,3.52
2019-05-26T20:50:50.681Z,3.85
2019-05-26T20:53:20.947Z,3.90
2019-05-26T20:55:50.945Z,4.00
2019-05-26T20:58:20.729Z,4.67
2019-05-26T21:00:53.309Z,4.47
2019-05-26T21:03:22.457Z,4.55
2019-05-26T21:05:52.343Z,4.40
2019-05-26T21:08:22.199Z,4.78
2019-05-26T21:10:52.104Z,5.80
2019-05-26T21:13:22.024Z,5.17
2019-05-26T21:15:51.908Z,5.50
2019-05-26T21:18:21.707Z,5.58
2019-05-26T21:20:51.595Z,6.60
2019-05-26T21:23:22.763Z,5.80
2019-05-26T21:25:52.816Z,5.37
2019-05-26T21:28:22.578Z,6.22
2019-05-26T21:30:52.533Z,5.85
2019-05-26T21:33:22.410Z,5.97
2019-05-26T21:35:52.287Z,5.60
2019-05-26T21:38:23.144Z,5.90
2019-05-26T21:40:52.979Z,6.45
2019-05-26T21:43:22.822Z,6.92
2019-05-26T21:45:52.727Z,7.00
2019-05-26T21:48:22.520Z,7.53
2019-05-26T21:50:52.330Z,6.70
2019-05-26T21:53:22.112Z,6.78
2019-05-26T21:55:51.887Z,7.28
2019-05-26T21:58:21.770Z,7.30
2019-05-26T22:00:52.507Z,7.65
2019-05-26T22:03:22.380Z,7.87
2019-05-26T22:05:52.262Z,7.60
2019-05-26T22:08:22.154Z,8.08
2019-05-26T22:10:52.909Z,7.67
2019-05-26T22:13:23.848Z,8.50
2019-05-26T22:15:53.625Z,7.67
2019-05-26T22:18:23.889Z,7.50
2019-05-26T22:20:53.735Z,8.03
2019-05-26T22:23:23.628Z,8.23
2019-05-26T22:25:53.430Z,8.60
2019-05-26T22:28:23.180Z,8.73
2019-05-26T22:30:53.048Z,9.10
2019-05-26T22:33:22.899Z,8.20
2019-05-26T22:35:52.637Z,7.40
2019-05-26T22:38:22.500Z,8.05
2019-05-26T22:40:52.270Z,8.35
2019-05-26T22:43:22.166Z,7.83
2019-05-26T22:45:51.971Z,8.00
2019-05-26T22:48:21.945Z,8.30
2019-05-26T22:50:51.793Z,7.97
2019-05-26T22:53:22.969Z,8.10
2019-05-26T22:55:52.785Z,8.28
2019-05-26T22:58:22.654Z,8.35
2019-05-26T23:00:53.114Z,7.70
2019-05-26T23:03:23.692Z,8.58
2019-05-26T23:05:54.329Z,8.25
2019-05-26T23:08:24.981Z,8.20
2019-05-26T23:10:55.523Z,8.28
2019-05-26T23:13:26.181Z,8.45
2019-05-26T23:15:56.720Z,7.33
2019-05-26T23:18:27.256Z,7.62
2019-05-26T23:20:58.986Z,8.78
2019-05-26T23:23:29.608Z,8.80
2019-05-26T23:26:00.232Z,8.23
2019-05-26T23:28:30.934Z,8.15
2019-05-26T23:31:01.629Z,7.85
2019-05-26T23:33:32.193Z,8.60
2019-05-26T23:36:02.762Z,8.50
2019-05-26T23:38:33.358Z,9.45
2019-05-26T23:41:03.926Z,9.60
2019-05-26T23:43:34.625Z,10.58
2019-05-26T23:46:05.180Z,10.18
2019-05-26T23:48:35.792Z,10.55
2019-05-26T23:51:06.409Z,9.60
2019-05-26T23:53:36.928Z,10.03
2019-05-26T23:56:07.440Z,10.40
2019-05-26T23:58:37.938Z,11.18
